Time;durP1;ratioP1;P1;durP2;ratioP2;P2;SDS_P1;SDS_P2;PMS_P1;PMS_P2;Temp;Humidity;BMP_temperature;BMP_pressure;BME280_temperature;BME280_humidity;BME280_pressure;Samples;Min_cycle;Max_cycle;Signal;HPM_P1;HPM_P2
2024/02/03 00:02:04;;;;;;;51.67;30.27;;;;;;;;;;5103220;28;20473;-63
2024/02/03 00:04:31;;;;;;;71.73;37.00;;;;;;;;;;5103209;28;20612;-62
2024/02/03 00:06:57;;;;;;;60.37;35.10;;;;;;;;;;5097132;28;20898;-61
2024/02/03 00:09:24;;;;;;;68.87;36.87;;;;;;;;;;5096866;28;20463;-61
2024/02/03 00:11:53;;;;;;;62.67;33.53;;;;;;;;;;5107771;28;20972;-63
2024/02/03 00:14:19;;;;;;;55.93;31.73;;;;;;;;;;5093535;28;20440;-62
2024/02/03 00:16:46;;;;;;;61.63;34.80;;;;;;;;;;5109656;28;20831;-59
2024/02/03 00:19:13;;;;;;;68.20;33.80;;;;;;;;;;5098764;28;20508;-58
2024/02/03 00:21:39;;;;;;;66.30;33.93;;;;;;;;;;5099336;28;20485;-59
2024/02/03 00:24:06;;;;;;;61.90;32.53;;;;;;;;;;5097202;28;20455;-58
2024/02/03 00:26:33;;;;;;;61.00;31.67;;;;;;;;;;5099790;28;20439;-59
2024/02/03 00:29:01;;;;;;;61.50;32.70;;;;;;;;;;5095548;28;20464;-61
2024/02/03 00:31:27;;;;;;;52.03;29.57;;;;;;;;;;5097328;28;20452;-62
2024/02/03 00:33:54;;;;;;;57.43;34.00;;;;;;;;;;5094301;28;20473;-61
2024/02/03 00:36:21;;;;;;;64.30;32.73;;;;;;;;;;5090897;28;20487;-60
2024/02/03 00:38:47;;;;;;;57.43;33.37;;;;;;;;;;5098957;28;20487;-61
2024/02/03 00:41:14;;;;;;;61.40;34.70;;;;;;;;;;5118362;27;20462;-60
2024/02/03 00:43:40;;;;;;;54.47;31.90;;;;;;;;;;5113600;28;20446;-61
2024/02/03 00:46:10;;;;;;;55.33;31.27;;;;;;;;;;5118402;27;20446;-62
2024/02/03 00:48:36;;;;;;;53.53;32.93;;;;;;;;;;5112444;28;20462;-59
2024/02/03 00:51:05;;;;;;;61.77;35.87;;;;;;;;;;5119529;27;20510;-60
2024/02/03 00:53:32;;;;;;;53.37;31.50;;;;;;;;;;5110986;27;20473;-59
2024/02/03 00:56:01;;;;;;;50.07;29.03;;;;;;;;;;5113035;28;20574;-62
2024/02/03 00:58:27;;;;;;;61.17;32.60;;;;;;;;;;5112561;28;21303;-59
2024/02/03 01:00:54;;;;;;;55.20;33.53;;;;;;;;;;5111958;28;20450;-61
2024/02/03 01:03:22;;;;;;;54.67;31.87;;;;;;;;;;5114308;27;20492;-60
2024/02/03 01:05:49;;;;;;;56.93;33.57;;;;;;;;;;5117141;28;20460;-61
2024/02/03 01:08:16;;;;;;;59.93;34.10;;;;;;;;;;5120417;27;20494;-60
2024/02/03 01:10:43;;;;;;;54.60;32.00;;;;;;;;;;5119506;27;20454;-60
2024/02/03 01:13:10;;;;;;;49.50;30.53;;;;;;;;;;5113871;27;20477;-59
2024/02/03 01:15:36;;;;;;;51.90;30.40;;;;;;;;;;5113759;27;20494;-61
2024/02/03 01:18:03;;;;;;;46.90;29.53;;;;;;;;;;5114821;27;20874;-61
2024/02/03 01:20:32;;;;;;;52.00;31.80;;;;;;;;;;5120967;27;20458;-57
2024/02/03 01:22:59;;;;;;;56.20;32.40;;;;;;;;;;5116769;28;20462;-60
2024/02/03 01:25:25;;;;;;;51.90;31.60;;;;;;;;;;5108746;27;20455;-59
2024/02/03 01:27:52;;;;;;;57.33;30.80;;;;;;;;;;5116769;27;20480;-60
2024/02/03 01:30:18;;;;;;;49.30;29.60;;;;;;;;;;5118446;28;20438;-60
2024/02/03 01:32:45;;;;;;;49.80;29.13;;;;;;;;;;5117141;28;20458;-60
2024/02/03 01:35:11;;;;;;;52.33;30.67;;;;;;;;;;5120617;27;20481;-58
2024/02/03 01:37:39;;;;;;;47.57;28.40;;;;;;;;;;5109272;28;20488;-60
2024/02/03 01:40:06;;;;;;;46.97;27.00;;;;;;;;;;5106350;28;20527;-58
2024/02/03 01:42:33;;;;;;;46.00;29.30;;;;;;;;;;5106124;27;20871;-61
2024/02/03 01:45:02;;;;;;;46.13;28.43;;;;;;;;;;5112740;28;20454;-59
2024/02/03 01:47:28;;;;;;;54.07;28.53;;;;;;;;;;5119196;27;20749;-60
2024/02/03 01:49:55;;;;;;;45.20;27.63;;;;;;;;;;5109492;28;20516;-61
2024/02/03 01:52:25;;;;;;;45.77;28.73;;;;;;;;;;5112713;27;20487;-57
2024/02/03 01:54:53;;;;;;;42.33;26.40;;;;;;;;;;5113921;27;20468;-62
2024/02/03 01:57:21;;;;;;;40.50;26.83;;;;;;;;;;5107828;28;20490;-62
2024/02/03 01:59:47;;;;;;;49.60;29.93;;;;;;;;;;5113551;28;20519;-61
2024/02/03 02:02:14;;;;;;;50.80;28.27;;;;;;;;;;5110916;28;20451;-62
2024/02/03 02:04:40;;;;;;;44.87;26.83;;;;;;;;;;5104848;27;20523;-59
2024/02/03 02:07:07;;;;;;;46.03;29.07;;;;;;;;;;5117915;27;20458;-59
2024/02/03 02:09:34;;;;;;;42.23;26.50;;;;;;;;;;5107529;28;20455;-61
2024/02/03 02:12:02;;;;;;;42.97;26.40;;;;;;;;;;5105961;27;20451;-62
2024/02/03 02:14:29;;;;;;;44.53;27.60;;;;;;;;;;5129228;27;20441;-61
2024/02/03 02:16:58;;;;;;;47.40;29.70;;;;;;;;;;5099737;28;20483;-61
2024/02/03 02:19:24;;;;;;;46.70;26.07;;;;;;;;;;5105955;28;20485;-59
2024/02/03 02:21:52;;;;;;;42.97;26.40;;;;;;;;;;5113020;27;20476;-59
2024/02/03 02:24:19;;;;;;;47.90;26.40;;;;;;;;;;5115430;28;20468;-58
2024/02/03 02:26:45;;;;;;;41.70;27.37;;;;;;;;;;5114378;28;20445;-61
2024/02/03 02:29:12;;;;;;;47.33;27.73;;;;;;;;;;5119489;27;20465;-61
2024/02/03 02:31:39;;;;;;;44.93;28.13;;;;;;;;;;5105268;28;20445;-62
2024/02/03 02:34:05;;;;;;;40.90;26.13;;;;;;;;;;5104493;28;20462;-62
2024/02/03 02:36:32;;;;;;;45.37;27.60;;;;;;;;;;5107494;28;20512;-60
2024/02/03 02:39:00;;;;;;;43.63;28.23;;;;;;;;;;5109150;28;20486;-57
2024/02/03 02:41:27;;;;;;;44.40;28.03;;;;;;;;;;5104357;28;20903;-60
2024/02/03 02:43:54;;;;;;;45.03;27.37;;;;;;;;;;5105852;28;20520;-60
2024/02/03 02:46:25;;;;;;;39.57;24.27;;;;;;;;;;5102426;28;20450;-61
2024/02/03 02:48:52;;;;;;;42.40;24.60;;;;;;;;;;5104580;28;20462;-60
2024/02/03 02:51:18;;;;;;;41.97;25.70;;;;;;;;;;5100029;28;20443;-61
2024/02/03 02:53:45;;;;;;;42.93;26.03;;;;;;;;;;5114860;28;20446;-60
2024/02/03 02:56:15;;;;;;;37.00;24.17;;;;;;;;;;5115836;28;20538;-60
2024/02/03 02:58:41;;;;;;;40.50;25.30;;;;;;;;;;5113898;28;20454;-60
2024/02/03 03:01:08;;;;;;;43.43;25.60;;;;;;;;;;5107576;28;20468;-61
2024/02/03 03:03:34;;;;;;;43.40;26.67;;;;;;;;;;5124293;28;20465;-60
2024/02/03 03:06:01;;;;;;;43.13;25.70;;;;;;;;;;5106774;28;20450;-62
2024/02/03 03:08:28;;;;;;;42.73;25.60;;;;;;;;;;5106324;28;20462;-60
2024/02/03 03:10:54;;;;;;;42.80;26.00;;;;;;;;;;5109594;28;20446;-61
2024/02/03 03:13:22;;;;;;;39.17;25.00;;;;;;;;;;5118925;28;20492;-60
2024/02/03 03:15:49;;;;;;;42.03;25.80;;;;;;;;;;5112271;28;20528;-61
2024/02/03 03:18:15;;;;;;;34.80;22.63;;;;;;;;;;5115999;28;20450;-61
2024/02/03 03:20:43;;;;;;;35.80;22.80;;;;;;;;;;5120778;27;20484;-62
2024/02/03 03:23:09;;;;;;;37.93;23.00;;;;;;;;;;5112910;27;20520;-60
2024/02/03 03:25:36;;;;;;;36.67;23.17;;;;;;;;;;5108499;28;20458;-61
2024/02/03 03:28:02;;;;;;;38.47;23.30;;;;;;;;;;5110590;28;20500;-60
2024/02/03 03:30:30;;;;;;;36.63;22.00;;;;;;;;;;5115406;27;20469;-61
2024/02/03 03:32:57;;;;;;;39.13;22.80;;;;;;;;;;5116625;28;20457;-61
2024/02/03 03:35:25;;;;;;;38.53;21.87;;;;;;;;;;5117426;27;20493;-60
2024/02/03 03:37:51;;;;;;;38.40;22.00;;;;;;;;;;5113654;27;20494;-61
2024/02/03 03:40:18;;;;;;;36.20;19.90;;;;;;;;;;5113269;28;20487;-60
2024/02/03 03:42:47;;;;;;;31.87;18.63;;;;;;;;;;5103446;27;20455;-60
2024/02/03 03:45:14;;;;;;;39.03;21.90;;;;;;;;;;5118529;27;20512;-62
2024/02/03 03:47:42;;;;;;;40.33;21.90;;;;;;;;;;5118834;28;20496;-61
2024/02/03 03:50:08;;;;;;;34.43;21.50;;;;;;;;;;5108452;27;20483;-61
2024/02/03 03:52:35;;;;;;;34.03;19.00;;;;;;;;;;5118417;27;20468;-62
2024/02/03 03:55:01;;;;;;;35.40;19.23;;;;;;;;;;5116277;28;20947;-61
2024/02/03 03:57:28;;;;;;;30.33;18.53;;;;;;;;;;5112802;28;20488;-60
2024/02/03 03:59:54;;;;;;;29.17;17.50;;;;;;;;;;5108436;27;20479;-62
2024/02/03 04:02:21;;;;;;;33.17;18.93;;;;;;;;;;5107865;28;20465;-60
2024/02/03 04:04:49;;;;;;;30.90;18.50;;;;;;;;;;5106084;28;20863;-63
2024/02/03 04:07:15;;;;;;;33.13;18.20;;;;;;;;;;5109384;27;20450;-63
2024/02/03 04:09:48;;;;;;;28.17;18.53;;;;;;;;;;5102411;28;20494;-62
2024/02/03 04:12:14;;;;;;;30.00;18.63;;;;;;;;;;5117503;28;20751;-60
2024/02/03 04:14:42;;;;;;;29.17;18.33;;;;;;;;;;5116769;28;20859;-60
2024/02/03 04:17:08;;;;;;;31.80;19.03;;;;;;;;;;5119810;27;20518;-62
2024/02/03 04:19:35;;;;;;;31.00;17.90;;;;;;;;;;5119480;27;20498;-63
2024/02/03 04:22:03;;;;;;;32.47;19.57;;;;;;;;;;5119510;27;20866;-59
2024/02/03 04:24:29;;;;;;;33.37;19.10;;;;;;;;;;5115806;27;20450;-62
2024/02/03 04:26:56;;;;;;;28.73;16.83;;;;;;;;;;5119664;27;20493;-62
2024/02/03 04:29:22;;;;;;;28.97;18.83;;;;;;;;;;5111588;28;20918;-60
2024/02/03 04:31:49;;;;;;;26.50;16.87;;;;;;;;;;5113120;27;20917;-59
2024/02/03 04:34:17;;;;;;;31.50;17.20;;;;;;;;;;5121045;27;20473;-61
2024/02/03 04:36:44;;;;;;;30.73;17.67;;;;;;;;;;5109602;28;20554;-62
2024/02/03 04:39:11;;;;;;;27.97;16.17;;;;;;;;;;5112417;27;20511;-61
2024/02/03 04:41:38;;;;;;;28.30;17.37;;;;;;;;;;5113804;27;20502;-62
2024/02/03 04:44:05;;;;;;;27.37;16.43;;;;;;;;;;5117923;28;20456;-60
2024/02/03 04:46:31;;;;;;;29.07;17.60;;;;;;;;;;5111123;28;20950;-63
2024/02/03 04:48:58;;;;;;;29.13;16.50;;;;;;;;;;5106973;27;20455;-63
2024/02/03 04:51:24;;;;;;;27.60;15.37;;;;;;;;;;5111300;28;20485;-62
2024/02/03 04:53:51;;;;;;;27.47;15.77;;;;;;;;;;5119960;27;20486;-59
2024/02/03 04:56:19;;;;;;;27.70;15.20;;;;;;;;;;5110892;27;20479;-60
2024/02/03 04:58:45;;;;;;;22.13;14.17;;;;;;;;;;5119181;27;20485;-63
2024/02/03 05:01:11;;;;;;;22.93;13.93;;;;;;;;;;5105048;28;20445;-59
2024/02/03 05:03:38;;;;;;;26.27;15.80;;;;;;;;;;5111624;27;20520;-61
2024/02/03 05:06:05;;;;;;;21.00;14.10;;;;;;;;;;5114282;27;20485;-61
2024/02/03 05:08:31;;;;;;;18.93;12.23;;;;;;;;;;5105848;28;20490;-62
2024/02/03 05:10:58;;;;;;;19.90;12.73;;;;;;;;;;5118584;27;20507;-62
2024/02/03 05:13:27;;;;;;;19.03;12.50;;;;;;;;;;5116918;27;20458;-61
2024/02/03 05:15:53;;;;;;;22.80;11.23;;;;;;;;;;5120634;27;20481;-62
2024/02/03 05:18:20;;;;;;;19.80;12.20;;;;;;;;;;5110893;28;20491;-59
2024/02/03 05:20:48;;;;;;;18.97;11.73;;;;;;;;;;5114847;27;20439;-62
2024/02/03 05:23:14;;;;;;;16.10;10.63;;;;;;;;;;5113705;27;20497;-61
2024/02/03 05:25:41;;;;;;;22.40;13.07;;;;;;;;;;5115652;28;20470;-62
2024/02/03 05:28:08;;;;;;;20.50;11.70;;;;;;;;;;5111884;28;20450;-61
2024/02/03 05:30:35;;;;;;;19.60;12.20;;;;;;;;;;5111698;27;20482;-61
2024/02/03 05:33:02;;;;;;;20.20;12.33;;;;;;;;;;5118413;28;20470;-59
2024/02/03 05:35:28;;;;;;;17.03;11.00;;;;;;;;;;5113946;27;20476;-61
2024/02/03 05:37:55;;;;;;;18.53;11.57;;;;;;;;;;5104917;27;20522;-61
2024/02/03 05:40:22;;;;;;;17.93;10.93;;;;;;;;;;5109300;27;20495;-62
2024/02/03 05:42:48;;;;;;;19.67;11.43;;;;;;;;;;5103447;27;20479;-60
2024/02/03 05:45:17;;;;;;;18.17;11.50;;;;;;;;;;5106921;27;20483;-60
2024/02/03 05:47:44;;;;;;;18.43;10.90;;;;;;;;;;5114348;28;20507;-60
2024/02/03 05:50:11;;;;;;;18.03;11.10;;;;;;;;;;5118319;28;20488;-61
2024/02/03 05:52:38;;;;;;;17.40;11.53;;;;;;;;;;5113728;27;20491;-60
2024/02/03 05:55:05;;;;;;;18.87;10.83;;;;;;;;;;5105829;28;20458;-60
2024/02/03 05:57:31;;;;;;;15.50;10.03;;;;;;;;;;5116707;27;20492;-61
2024/02/03 05:59:57;;;;;;;18.43;10.50;;;;;;;;;;5119746;27;20470;-61
2024/02/03 06:02:24;;;;;;;18.70;10.77;;;;;;;;;;5110944;27;20491;-62
2024/02/03 06:04:52;;;;;;;16.10;11.10;;;;;;;;;;5107041;28;20479;-61
2024/02/03 06:07:19;;;;;;;17.60;10.20;;;;;;;;;;5113497;28;20472;-61
2024/02/03 06:09:45;;;;;;;20.20;11.67;;;;;;;;;;5105825;27;20906;-60
2024/02/03 06:12:12;;;;;;;14.60;9.20;;;;;;;;;;5110568;27;20489;-59
2024/02/03 06:14:40;;;;;;;19.77;12.07;;;;;;;;;;5118070;27;20453;-61
2024/02/03 06:17:07;;;;;;;18.63;11.70;;;;;;;;;;5106753;28;20478;-61
2024/02/03 06:19:33;;;;;;;18.43;11.97;;;;;;;;;;5124048;27;20486;-62
2024/02/03 06:22:01;;;;;;;15.50;9.17;;;;;;;;;;5108385;28;20504;-62
2024/02/03 06:24:27;;;;;;;18.17;10.93;;;;;;;;;;5112731;27;20459;-59
2024/02/03 06:26:54;;;;;;;16.30;9.80;;;;;;;;;;5118208;27;20704;-61
2024/02/03 06:29:21;;;;;;;16.43;10.87;;;;;;;;;;5115577;28;20641;-61
2024/02/03 06:31:47;;;;;;;13.23;9.03;;;;;;;;;;5115894;28;20497;-63
2024/02/03 06:34:15;;;;;;;16.97;10.20;;;;;;;;;;5105433;28;20474;-61
2024/02/03 06:36:41;;;;;;;19.10;10.40;;;;;;;;;;5125528;28;20470;-62
2024/02/03 06:39:09;;;;;;;17.27;10.87;;;;;;;;;;5114392;28;20481;-60
2024/02/03 06:41:36;;;;;;;17.43;11.23;;;;;;;;;;5113842;28;20455;-58
2024/02/03 06:44:02;;;;;;;15.50;9.93;;;;;;;;;;5108824;28;20487;-61
2024/02/03 06:46:29;;;;;;;15.57;9.77;;;;;;;;;;5107361;28;20470;-62
2024/02/03 06:48:55;;;;;;;17.80;11.13;;;;;;;;;;5114043;28;20486;-61
2024/02/03 06:51:21;;;;;;;14.33;9.57;;;;;;;;;;5116878;28;20469;-62
2024/02/03 06:53:48;;;;;;;14.10;10.00;;;;;;;;;;5112100;28;20490;-61
2024/02/03 06:56:16;;;;;;;17.27;10.50;;;;;;;;;;5110450;28;20471;-61
2024/02/03 06:58:42;;;;;;;16.87;10.07;;;;;;;;;;5116060;28;20474;-62
2024/02/03 07:01:09;;;;;;;14.80;9.47;;;;;;;;;;5117083;28;20458;-62
2024/02/03 07:03:35;;;;;;;14.63;9.77;;;;;;;;;;5117945;28;20513;-58
2024/02/03 07:06:02;;;;;;;15.60;10.00;;;;;;;;;;5119595;28;20430;-61
2024/02/03 07:08:29;;;;;;;12.80;9.70;;;;;;;;;;5119014;28;20446;-60
2024/02/03 07:10:56;;;;;;;13.93;8.33;;;;;;;;;;5116254;28;20491;-62
2024/02/03 07:13:25;;;;;;;13.17;8.57;;;;;;;;;;5116449;28;20510;-60
2024/02/03 07:15:52;;;;;;;12.60;8.13;;;;;;;;;;5113927;28;20457;-61
2024/02/03 07:18:19;;;;;;;10.53;7.23;;;;;;;;;;5113360;28;20522;-61
2024/02/03 07:20:46;;;;;;;11.27;7.70;;;;;;;;;;5113009;28;20434;-60
2024/02/03 07:23:12;;;;;;;10.30;7.33;;;;;;;;;;5112822;28;20450;-61
2024/02/03 07:25:39;;;;;;;10.67;6.80;;;;;;;;;;5113825;28;20485;-59
2024/02/03 07:28:05;;;;;;;11.97;7.70;;;;;;;;;;5114817;27;20459;-63
2024/02/03 07:30:33;;;;;;;12.80;7.77;;;;;;;;;;5112917;28;21381;-61
2024/02/03 07:33:01;;;;;;;12.67;8.70;;;;;;;;;;5112231;28;20446;-61
2024/02/03 07:35:29;;;;;;;11.53;7.27;;;;;;;;;;5105857;28;20455;-62
2024/02/03 07:37:56;;;;;;;10.43;6.90;;;;;;;;;;5110642;28;20490;-63
2024/02/03 07:40:23;;;;;;;13.03;7.70;;;;;;;;;;5105927;27;20519;-63
2024/02/03 07:42:50;;;;;;;12.90;8.70;;;;;;;;;;5110137;28;20482;-63
2024/02/03 07:45:16;;;;;;;13.07;8.17;;;;;;;;;;5114486;27;20461;-62
2024/02/03 07:47:45;;;;;;;11.53;7.50;;;;;;;;;;5111692;28;20467;-63
2024/02/03 07:50:11;;;;;;;13.50;8.53;;;;;;;;;;5109034;28;20469;-61
2024/02/03 07:52:38;;;;;;;16.07;9.20;;;;;;;;;;5112001;28;20450;-63
2024/02/03 07:55:05;;;;;;;13.57;8.77;;;;;;;;;;5111672;28;20480;-63
2024/02/03 07:57:31;;;;;;;14.53;9.83;;;;;;;;;;5115488;28;20506;-64
2024/02/03 07:59:57;;;;;;;17.27;10.87;;;;;;;;;;5116981;28;20478;-61
2024/02/03 08:02:24;;;;;;;15.83;10.17;;;;;;;;;;5117264;28;20447;-57
2024/02/03 08:04:53;;;;;;;17.10;10.37;;;;;;;;;;5113878;28;20453;-60
2024/02/03 08:07:20;;;;;;;16.73;11.10;;;;;;;;;;5109028;28;20510;-61
2024/02/03 08:09:46;;;;;;;14.73;10.53;;;;;;;;;;5113505;28;20466;-60
2024/02/03 08:12:13;;;;;;;13.30;8.50;;;;;;;;;;5111457;28;20451;-59
2024/02/03 08:14:39;;;;;;;14.10;8.67;;;;;;;;;;5115941;28;20454;-59
2024/02/03 08:17:06;;;;;;;11.60;7.63;;;;;;;;;;5115320;28;21145;-62
2024/02/03 08:19:32;;;;;;;12.03;7.97;;;;;;;;;;5116163;28;20450;-60
2024/02/03 08:22:01;;;;;;;14.30;8.80;;;;;;;;;;5113017;28;20442;-60
2024/02/03 08:24:27;;;;;;;10.40;6.97;;;;;;;;;;5113745;28;20459;-60
2024/02/03 08:26:54;;;;;;;9.70;6.60;;;;;;;;;;5113265;28;20472;-60
2024/02/03 08:29:21;;;;;;;10.80;7.17;;;;;;;;;;5109353;28;20862;-59
2024/02/03 08:31:48;;;;;;;9.10;6.07;;;;;;;;;;5112456;28;21014;-64
2024/02/03 08:34:14;;;;;;;9.23;5.80;;;;;;;;;;5111328;28;20450;-64
2024/02/03 08:36:41;;;;;;;8.17;5.50;;;;;;;;;;5117593;27;20438;-66
2024/02/03 08:39:09;;;;;;;9.10;5.90;;;;;;;;;;5116925;27;21001;-64
2024/02/03 08:41:35;;;;;;;8.07;6.00;;;;;;;;;;5102747;28;20439;-64
2024/02/03 08:44:02;;;;;;;8.73;5.80;;;;;;;;;;5105942;27;20451;-65
2024/02/03 08:46:28;;;;;;;10.40;6.00;;;;;;;;;;5115710;27;20451;-64
2024/02/03 08:48:55;;;;;;;8.90;6.20;;;;;;;;;;5113979;28;20543;-64
2024/02/03 08:51:21;;;;;;;8.90;6.00;;;;;;;;;;5116478;28;20462;-62
2024/02/03 08:53:48;;;;;;;8.60;5.27;;;;;;;;;;5114547;28;20438;-64
2024/02/03 08:56:15;;;;;;;8.80;5.10;;;;;;;;;;5117613;27;20443;-64
2024/02/03 08:58:42;;;;;;;8.97;5.90;;;;;;;;;;5114039;28;20543;-62
2024/02/03 09:01:08;;;;;;;8.27;6.60;;;;;;;;;;5117220;28;20503;-64
2024/02/03 09:03:35;;;;;;;8.40;5.70;;;;;;;;;;5117343;28;20470;-64
2024/02/03 09:06:01;;;;;;;8.50;5.67;;;;;;;;;;5117723;28;20431;-64
2024/02/03 09:08:28;;;;;;;10.90;6.50;;;;;;;;;;5112095;28;20454;-64
2024/02/03 09:10:55;;;;;;;8.37;6.00;;;;;;;;;;5113897;28;20483;-63
2024/02/03 09:13:23;;;;;;;9.07;6.30;;;;;;;;;;5114798;28;20458;-61
2024/02/03 09:15:50;;;;;;;9.40;6.60;;;;;;;;;;5109064;28;20491;-64
2024/02/03 09:18:16;;;;;;;11.70;7.50;;;;;;;;;;5113350;28;20489;-64
2024/02/03 09:20:43;;;;;;;10.77;6.53;;;;;;;;;;5111529;28;20464;-65
2024/02/03 09:23:10;;;;;;;8.60;6.57;;;;;;;;;;5111174;28;20470;-65
2024/02/03 09:25:39;;;;;;;8.27;5.50;;;;;;;;;;5113416;28;20450;-64
2024/02/03 09:28:06;;;;;;;10.00;5.97;;;;;;;;;;5113477;28;20453;-64
2024/02/03 09:30:33;;;;;;;11.83;7.10;;;;;;;;;;5113256;28;20515;-64
2024/02/03 09:33:01;;;;;;;9.63;6.40;;;;;;;;;;5113824;28;20465;-64
2024/02/03 09:35:28;;;;;;;8.87;7.00;;;;;;;;;;5107614;28;20434;-61
2024/02/03 09:37:54;;;;;;;10.27;6.30;;;;;;;;;;5099112;27;20484;-62
2024/02/03 09:40:21;;;;;;;9.90;6.10;;;;;;;;;;5077081;28;21145;-65
2024/02/03 09:42:48;;;;;;;8.40;5.67;;;;;;;;;;5071847;28;20464;-64
2024/02/03 09:45:15;;;;;;;11.70;6.60;;;;;;;;;;5074920;28;20452;-61
2024/02/03 09:47:43;;;;;;;10.83;7.30;;;;;;;;;;5082578;28;20497;-62
2024/02/03 09:50:11;;;;;;;8.73;6.37;;;;;;;;;;5075355;28;20447;-65
2024/02/03 09:52:38;;;;;;;10.10;6.67;;;;;;;;;;5067566;28;20447;-64
2024/02/03 09:55:05;;;;;;;9.80;7.07;;;;;;;;;;5079198;28;20464;-63
2024/02/03 09:57:31;;;;;;;9.80;6.43;;;;;;;;;;5080121;28;20443;-62
2024/02/03 09:59:59;;;;;;;10.73;7.70;;;;;;;;;;5079495;28;20455;-64
2024/02/03 10:02:27;;;;;;;11.33;7.60;;;;;;;;;;5078114;28;20467;-65
2024/02/03 10:04:56;;;;;;;10.33;7.07;;;;;;;;;;5082326;28;20448;-64
2024/02/03 10:07:22;;;;;;;11.63;7.53;;;;;;;;;;5080006;28;20483;-62
2024/02/03 10:09:50;;;;;;;12.97;8.53;;;;;;;;;;5075895;28;21189;-65
2024/02/03 10:12:20;;;;;;;12.10;7.80;;;;;;;;;;5076676;28;20462;-64
2024/02/03 10:14:46;;;;;;;14.10;9.13;;;;;;;;;;5074694;28;20459;-64
2024/02/03 10:17:20;;;;;;;13.03;9.73;;;;;;;;;;5079647;28;20443;-64
2024/02/03 10:19:46;;;;;;;15.10;11.20;;;;;;;;;;5069059;28;21462;-65
2024/02/03 10:22:15;;;;;;;15.70;11.23;;;;;;;;;;5077613;28;20807;-64
2024/02/03 10:24:41;;;;;;;15.17;11.27;;;;;;;;;;5074274;28;20459;-63
2024/02/03 10:27:08;;;;;;;16.07;10.77;;;;;;;;;;5073821;28;20435;-60
2024/02/03 10:29:35;;;;;;;15.87;10.20;;;;;;;;;;5078886;28;20478;-64
2024/02/03 10:32:02;;;;;;;16.73;11.20;;;;;;;;;;5080225;28;20443;-58
2024/02/03 10:34:28;;;;;;;17.93;11.57;;;;;;;;;;5074408;28;20447;-59
2024/02/03 10:36:54;;;;;;;15.80;11.40;;;;;;;;;;5075925;28;20459;-58
2024/02/03 10:39:23;;;;;;;16.47;12.43;;;;;;;;;;5088207;28;20528;-60
2024/02/03 10:41:50;;;;;;;17.63;13.17;;;;;;;;;;5110133;28;20439;-58
2024/02/03 10:44:21;;;;;;;14.87;11.10;;;;;;;;;;5109103;28;20450;-60
2024/02/03 10:46:49;;;;;;;15.30;11.27;;;;;;;;;;5106035;28;20438;-59
2024/02/03 10:49:16;;;;;;;17.40;11.60;;;;;;;;;;5108481;28;20481;-57
2024/02/03 10:51:44;;;;;;;17.03;11.27;;;;;;;;;;5103668;28;20501;-60
2024/02/03 10:54:14;;;;;;;13.63;10.90;;;;;;;;;;5120156;28;20457;-60
2024/02/03 10:56:42;;;;;;;16.57;10.90;;;;;;;;;;5115428;28;20447;-57
2024/02/03 10:59:09;;;;;;;14.60;11.10;;;;;;;;;;5105276;28;20494;-60
2024/02/03 11:01:36;;;;;;;15.30;11.50;;;;;;;;;;5106525;28;20446;-60
2024/02/03 11:04:03;;;;;;;14.40;11.13;;;;;;;;;;5111112;28;20460;-60
2024/02/03 11:06:30;;;;;;;13.30;10.50;;;;;;;;;;5118714;28;20433;-59
2024/02/03 11:09:11;;;;;;;17.43;11.17;;;;;;;;;;5119519;28;20459;-59
2024/02/03 11:11:38;;;;;;;15.67;11.10;;;;;;;;;;5114825;28;20889;-69
2024/02/03 11:14:10;;;;;;;14.23;10.47;;;;;;;;;;5120841;28;20454;-68
2024/02/03 11:16:37;;;;;;;15.77;10.50;;;;;;;;;;5114433;28;20450;-67
2024/02/03 11:19:03;;;;;;;16.67;11.97;;;;;;;;;;5098348;28;20483;-67
2024/02/03 11:21:30;;;;;;;14.90;10.93;;;;;;;;;;5106447;28;20469;-67
2024/02/03 11:23:56;;;;;;;14.47;11.47;;;;;;;;;;5100643;28;20988;-67
2024/02/03 11:26:23;;;;;;;15.43;11.23;;;;;;;;;;5106866;28;20459;-67
2024/02/03 11:28:50;;;;;;;14.57;11.27;;;;;;;;;;5117819;28;20968;-68
2024/02/03 11:31:17;;;;;;;16.47;11.97;;;;;;;;;;5111530;28;20519;-68
2024/02/03 11:33:45;;;;;;;11.73;9.40;;;;;;;;;;5111914;28;20469;-67
2024/02/03 11:36:12;;;;;;;15.70;11.80;;;;;;;;;;5112518;28;21208;-66
2024/02/03 11:38:46;;;;;;;14.40;10.63;;;;;;;;;;5119028;28;20652;-68
2024/02/03 11:41:12;;;;;;;13.30;10.40;;;;;;;;;;5115201;27;21126;-68
2024/02/03 11:43:39;;;;;;;13.70;10.07;;;;;;;;;;5126733;27;20481;-69
2024/02/03 11:46:06;;;;;;;13.27;11.00;;;;;;;;;;5113293;27;20499;-70
2024/02/03 11:48:35;;;;;;;14.23;11.20;;;;;;;;;;5113791;27;20462;-73
2024/02/03 11:51:02;;;;;;;15.50;11.53;;;;;;;;;;5112255;27;20459;-71
2024/02/03 11:53:29;;;;;;;17.27;12.60;;;;;;;;;;5115028;27;20481;-70
2024/02/03 11:55:56;;;;;;;18.80;11.60;;;;;;;;;;5115459;27;20457;-67
2024/02/03 11:58:23;;;;;;;18.57;13.40;;;;;;;;;;5120299;27;21122;-63
2024/02/03 12:01:00;;;;;;;18.17;13.10;;;;;;;;;;5128096;27;20494;-63
2024/02/03 12:03:27;;;;;;;21.53;13.10;;;;;;;;;;5103151;28;21026;-65
2024/02/03 12:05:55;;;;;;;15.80;12.77;;;;;;;;;;5114271;28;20468;-62
2024/02/03 12:08:21;;;;;;;16.10;12.67;;;;;;;;;;5105654;27;20917;-63
2024/02/03 12:10:48;;;;;;;19.50;15.00;;;;;;;;;;5103722;27;20458;-60
2024/02/03 12:13:15;;;;;;;18.23;13.43;;;;;;;;;;5106458;28;21026;-64
2024/02/03 12:15:42;;;;;;;17.23;13.20;;;;;;;;;;5115621;27;20514;-64
2024/02/03 12:18:08;;;;;;;22.13;13.80;;;;;;;;;;5110803;27;20455;-63
2024/02/03 12:20:35;;;;;;;19.00;13.77;;;;;;;;;;5109443;27;20482;-62
2024/02/03 12:23:03;;;;;;;18.67;13.90;;;;;;;;;;5111312;27;20446;-62
2024/02/03 12:25:29;;;;;;;18.77;13.23;;;;;;;;;;5109010;27;20455;-60
2024/02/03 12:27:56;;;;;;;24.50;15.10;;;;;;;;;;5102232;27;20493;-62
2024/02/03 12:30:23;;;;;;;20.43;14.33;;;;;;;;;;5112585;27;20445;-62
2024/02/03 12:32:49;;;;;;;18.40;14.37;;;;;;;;;;5118104;27;20463;-64
2024/02/03 12:35:16;;;;;;;19.90;13.83;;;;;;;;;;5113948;27;20451;-63
2024/02/03 12:37:43;;;;;;;21.17;14.20;;;;;;;;;;5111850;27;20941;-62
2024/02/03 12:40:11;;;;;;;19.63;14.60;;;;;;;;;;5110602;27;20485;-61
2024/02/03 12:42:38;;;;;;;19.07;13.80;;;;;;;;;;5096931;28;20461;-61
2024/02/03 12:45:05;;;;;;;17.40;13.73;;;;;;;;;;5121445;27;20454;-61
2024/02/03 12:47:32;;;;;;;19.73;14.50;;;;;;;;;;5096022;27;20457;-59
2024/02/03 12:49:59;;;;;;;18.20;13.27;;;;;;;;;;5126507;27;21158;-59
2024/02/03 12:52:26;;;;;;;20.00;14.00;;;;;;;;;;5108673;28;20512;-63
2024/02/03 12:54:52;;;;;;;22.20;13.90;;;;;;;;;;5106243;28;20454;-62
2024/02/03 12:57:20;;;;;;;23.60;14.27;;;;;;;;;;5110745;27;20455;-62
2024/02/03 12:59:47;;;;;;;18.10;13.93;;;;;;;;;;5102013;27;21002;-63
2024/02/03 13:02:13;;;;;;;15.37;12.47;;;;;;;;;;5106181;27;20452;-63
2024/02/03 13:04:40;;;;;;;18.57;13.70;;;;;;;;;;5107429;27;20454;-62
2024/02/03 13:07:06;;;;;;;21.47;13.57;;;;;;;;;;5111677;27;20475;-60
2024/02/03 13:09:33;;;;;;;21.33;14.03;;;;;;;;;;5120893;27;21019;-61
2024/02/03 13:11:59;;;;;;;21.77;13.60;;;;;;;;;;5111658;27;20442;-71
2024/02/03 13:14:28;;;;;;;20.20;13.23;;;;;;;;;;5100577;27;20447;-71
2024/02/03 13:16:55;;;;;;;16.90;13.00;;;;;;;;;;5115586;27;20516;-72
2024/02/03 13:19:21;;;;;;;18.03;14.37;;;;;;;;;;5106751;27;20489;-71
2024/02/03 13:21:48;;;;;;;19.70;12.77;;;;;;;;;;5103480;28;20446;-70
2024/02/03 13:24:14;;;;;;;16.00;12.17;;;;;;;;;;5104655;28;20447;-68
2024/02/03 13:26:41;;;;;;;26.93;15.97;;;;;;;;;;5109801;28;20451;-70
2024/02/03 13:29:07;;;;;;;15.10;13.17;;;;;;;;;;5106191;28;20586;-72
2024/02/03 13:31:35;;;;;;;21.17;13.80;;;;;;;;;;5113025;28;20458;-72
2024/02/03 13:34:03;;;;;;;18.13;13.90;;;;;;;;;;5109725;28;20446;-72
2024/02/03 13:36:29;;;;;;;25.40;15.30;;;;;;;;;;5101774;28;20562;-72
2024/02/03 13:38:56;;;;;;;18.77;13.90;;;;;;;;;;5095032;28;20478;-72
2024/02/03 13:41:23;;;;;;;23.77;13.33;;;;;;;;;;5104503;28;20504;-72
2024/02/03 13:43:49;;;;;;;19.47;13.43;;;;;;;;;;5102038;28;20466;-72
2024/02/03 13:46:16;;;;;;;20.30;13.77;;;;;;;;;;5105822;28;20457;-71
2024/02/03 13:48:44;;;;;;;16.90;12.57;;;;;;;;;;5098804;28;20466;-71
2024/02/03 13:51:10;;;;;;;16.87;13.10;;;;;;;;;;5105240;28;20448;-64
2024/02/03 13:53:37;;;;;;;18.50;12.83;;;;;;;;;;5111329;28;20485;-60
2024/02/03 13:56:05;;;;;;;19.17;11.33;;;;;;;;;;5106516;28;20446;-62
2024/02/03 13:58:31;;;;;;;17.73;11.83;;;;;;;;;;5107027;28;20482;-60
2024/02/03 14:00:58;;;;;;;15.27;12.13;;;;;;;;;;5102596;28;20475;-61
2024/02/03 14:03:24;;;;;;;16.20;12.43;;;;;;;;;;5103091;28;20454;-61
2024/02/03 14:05:53;;;;;;;15.60;11.17;;;;;;;;;;5114693;28;20942;-63
2024/02/03 14:08:20;;;;;;;14.37;10.60;;;;;;;;;;5102598;28;20451;-62
2024/02/03 14:10:46;;;;;;;17.83;9.97;;;;;;;;;;5098967;28;20507;-63
2024/02/03 14:13:13;;;;;;;16.53;10.27;;;;;;;;;;5110862;28;20476;-63
2024/02/03 14:15:40;;;;;;;12.90;9.70;;;;;;;;;;5099329;28;20455;-59
2024/02/03 14:18:07;;;;;;;12.40;9.37;;;;;;;;;;5099966;28;20451;-61
2024/02/03 14:20:35;;;;;;;12.00;8.30;;;;;;;;;;5105587;28;20486;-62